createdAt,value
2023-05-20T00:01:18.481Z,96.10
2023-05-20T00:03:46.703Z,96.10
2023-05-20T00:06:13.753Z,96.20
2023-05-20T00:08:40.506Z,96.00
2023-05-20T00:11:07.322Z,96.00
2023-05-20T00:13:36.246Z,96.10
2023-05-20T00:16:03.323Z,96.40
2023-05-20T00:18:30.876Z,95.80
2023-05-20T00:20:57.952Z,96.00
2023-05-20T00:23:24.764Z,96.10
2023-05-20T00:25:51.905Z,95.80
2023-05-20T00:28:19.978Z,96.20
2023-05-20T00:30:47.647Z,96.00
2023-05-20T00:33:14.706Z,96.20
2023-05-20T00:35:41.928Z,95.90
2023-05-20T00:38:09.311Z,95.70
2023-05-20T00:40:36.726Z,95.60
2023-05-20T00:43:04.094Z,95.80
2023-05-20T00:45:31.782Z,95.80
2023-05-20T00:48:01.789Z,95.80
2023-05-20T00:50:29.867Z,95.70
2023-05-20T00:52:57.326Z,95.80
2023-05-20T00:55:24.642Z,96.10
2023-05-20T00:57:52.162Z,95.60
2023-05-20T01:00:19.675Z,95.60
2023-05-20T01:02:47.882Z,95.60
2023-05-20T01:05:14.964Z,95.80
2023-05-20T01:07:42.164Z,95.80
2023-05-20T01:10:10.614Z,95.70
2023-05-20T01:12:43.879Z,95.80
2023-05-20T01:15:12.277Z,95.70
2023-05-20T01:17:45.530Z,95.80
2023-05-20T01:20:15.688Z,96.00
2023-05-20T01:22:49.261Z,95.90
2023-05-20T01:25:16.090Z,96.40
2023-05-20T01:27:43.486Z,96.20
2023-05-20T01:30:11.636Z,96.00
2023-05-20T01:32:40.535Z,95.90
2023-05-20T01:35:08.293Z,96.00
2023-05-20T01:37:59.005Z,96.30
2023-05-20T01:40:27.975Z,96.20
2023-05-20T01:42:55.643Z,96.50
2023-05-20T01:45:23.923Z,96.50
2023-05-20T01:47:51.420Z,96.60
2023-05-20T01:50:18.504Z,96.60
2023-05-20T01:52:45.984Z,96.60
2023-05-20T01:55:13.906Z,96.40
2023-05-20T01:57:40.998Z,96.50
2023-05-20T02:00:10.204Z,96.90
2023-05-20T02:02:45.121Z,97.00
2023-05-20T02:05:13.080Z,97.30
2023-05-20T02:07:42.604Z,97.30
2023-05-20T02:10:10.106Z,97.30
2023-05-20T02:12:37.231Z,97.20
2023-05-20T02:15:05.672Z,97.50
2023-05-20T02:17:32.724Z,97.60
2023-05-20T02:19:59.806Z,97.20
2023-05-20T02:22:27.248Z,97.30
2023-05-20T02:24:54.236Z,97.60
2023-05-20T02:27:21.023Z,97.40
2023-05-20T02:29:47.799Z,97.70
2023-05-20T02:32:15.282Z,97.70
2023-05-20T02:34:43.214Z,96.90
2023-05-20T02:37:10.696Z,96.80
2023-05-20T02:39:37.774Z,97.00
2023-05-20T02:42:04.779Z,97.30
2023-05-20T02:44:31.986Z,96.90
2023-05-20T02:46:59.315Z,96.80
2023-05-20T02:49:26.700Z,97.20
2023-05-20T02:51:53.654Z,97.10
2023-05-20T02:54:21.271Z,97.00
2023-05-20T02:56:48.452Z,97.40
2023-05-20T02:59:15.713Z,97.20
2023-05-20T03:01:43.198Z,97.30
2023-05-20T03:04:10.337Z,97.20
2023-05-20T03:06:38.339Z,97.10
2023-05-20T03:09:06.383Z,97.50
2023-05-20T03:11:33.753Z,97.20
2023-05-20T03:14:01.136Z,97.60
2023-05-20T03:16:28.551Z,97.60
2023-05-20T03:18:58.451Z,97.40
2023-05-20T03:21:26.496Z,97.50
2023-05-20T03:23:53.861Z,97.70
2023-05-20T03:26:21.998Z,97.50
2023-05-20T03:28:49.476Z,97.80
2023-05-20T03:31:17.861Z,97.80
2023-05-20T03:33:46.257Z,97.60
2023-05-20T03:36:13.327Z,97.90
2023-05-20T03:38:40.394Z,98.10
2023-05-20T03:41:07.914Z,97.90
2023-05-20T03:43:36.116Z,97.90
2023-05-20T03:46:03.108Z,98.20
2023-05-20T03:48:30.002Z,98.10
2023-05-20T03:50:56.918Z,98.00
2023-05-20T03:53:24.374Z,98.30
2023-05-20T03:55:51.339Z,98.20
2023-05-20T03:58:18.484Z,98.50
2023-05-20T04:00:45.341Z,98.30
2023-05-20T04:03:12.724Z,98.30
2023-05-20T04:05:39.760Z,98.40
2023-05-20T04:08:15.286Z,98.40
2023-05-20T04:10:45.278Z,98.80
2023-05-20T04:13:12.752Z,98.50
2023-05-20T04:15:41.720Z,98.60
2023-05-20T04:18:10.556Z,98.50
2023-05-20T04:20:38.567Z,98.80
2023-05-20T04:23:05.738Z,98.50
2023-05-20T04:25:33.298Z,98.50
2023-05-20T04:28:00.736Z,98.40
2023-05-20T04:30:34.863Z,98.80
2023-05-20T04:33:04.038Z,98.80
2023-05-20T04:35:32.073Z,98.70
2023-05-20T04:38:03.328Z,99.00
2023-05-20T04:40:30.397Z,99.00
2023-05-20T04:43:00.315Z,99.00
2023-05-20T04:45:28.699Z,99.10
2023-05-20T04:47:55.635Z,99.00
2023-05-20T04:50:22.508Z,99.10
2023-05-20T04:52:49.448Z,99.10
2023-05-20T04:55:16.801Z,99.40
2023-05-20T04:57:43.649Z,99.00
2023-05-20T05:00:12.664Z,99.50
2023-05-20T05:02:40.995Z,99.60
2023-05-20T05:05:08.462Z,99.50
2023-05-20T05:07:37.007Z,99.90
2023-05-20T05:10:04.439Z,99.80
2023-05-20T05:12:33.249Z,99.90
2023-05-20T05:15:00.400Z,99.90
2023-05-20T05:17:28.732Z,99.90
2023-05-20T05:19:57.025Z,99.90
2023-05-20T05:22:24.082Z,99.90
2023-05-20T05:24:52.326Z,99.90
2023-05-20T05:27:19.465Z,99.90
2023-05-20T05:29:46.640Z,99.80
2023-05-20T05:32:14.130Z,99.70
2023-05-20T05:34:41.545Z,99.90
2023-05-20T05:37:09.274Z,99.90
2023-05-20T05:39:37.901Z,99.90
2023-05-20T05:42:05.551Z,99.90
2023-05-20T05:44:33.375Z,99.90
2023-05-20T05:47:00.741Z,99.90
2023-05-20T05:49:27.803Z,99.90
2023-05-20T05:51:55.007Z,99.90
2023-05-20T05:54:22.077Z,99.90
2023-05-20T05:56:51.745Z,99.90
2023-05-20T05:59:19.423Z,99.90
2023-05-20T06:01:48.853Z,99.90
2023-05-20T06:04:16.042Z,99.90
2023-05-20T06:06:44.136Z,99.90
2023-05-20T06:09:11.474Z,99.90
2023-05-20T06:11:39.012Z,99.90
2023-05-20T06:14:05.899Z,99.90
2023-05-20T06:16:33.280Z,99.90
2023-05-20T06:19:03.739Z,99.90
2023-05-20T06:21:33.040Z,99.90
2023-05-20T06:24:00.934Z,99.90
2023-05-20T06:26:27.946Z,99.90
2023-05-20T06:28:55.058Z,99.90
2023-05-20T06:31:23.833Z,99.90
2023-05-20T06:33:51.856Z,99.90
2023-05-20T06:36:20.298Z,99.90
2023-05-20T06:38:48.127Z,99.90
2023-05-20T06:41:16.253Z,99.90
2023-05-20T06:43:44.158Z,99.90
2023-05-20T06:46:30.010Z,99.90
2023-05-20T06:49:04.921Z,99.90
2023-05-20T06:51:32.213Z,99.90
2023-05-20T06:54:00.340Z,99.90
2023-05-20T06:56:27.488Z,99.90
2023-05-20T06:58:55.456Z,99.90
2023-05-20T07:01:22.537Z,99.90
2023-05-20T07:03:50.267Z,99.90
2023-05-20T07:06:18.088Z,99.90
2023-05-20T07:08:45.370Z,99.90
2023-05-20T07:11:12.740Z,99.90
2023-05-20T07:13:39.952Z,99.90
2023-05-20T07:16:07.449Z,99.20
2023-05-20T07:18:37.142Z,99.20
2023-05-20T07:21:04.168Z,99.00
2023-05-20T07:23:42.572Z,99.30
2023-05-20T07:26:09.762Z,99.20
2023-05-20T07:28:36.668Z,99.10
2023-05-20T07:31:04.034Z,99.40
2023-05-20T07:33:33.134Z,99.50
2023-05-20T07:36:00.515Z,98.80
2023-05-20T07:38:27.540Z,98.80
2023-05-20T07:41:01.095Z,98.90
2023-05-20T07:43:28.805Z,99.20
2023-05-20T07:45:56.980Z,99.30
2023-05-20T07:48:24.148Z,99.70
2023-05-20T07:50:51.501Z,99.90
2023-05-20T07:53:20.242Z,99.90
2023-05-20T07:55:47.651Z,99.90
2023-05-20T07:58:15.397Z,99.90
2023-05-20T08:00:42.452Z,99.90
2023-05-20T08:03:09.597Z,99.90
2023-05-20T08:05:49.750Z,99.30
2023-05-20T08:08:17.229Z,99.40
2023-05-20T08:10:57.654Z,99.40
2023-05-20T08:13:27.012Z,99.90
2023-05-20T08:15:54.833Z,99.90
2023-05-20T08:18:22.477Z,99.90
2023-05-20T08:20:49.483Z,99.80
2023-05-20T08:23:16.978Z,99.90
2023-05-20T08:25:46.844Z,99.80
2023-05-20T08:28:13.966Z,99.90
2023-05-20T08:30:41.410Z,99.90
2023-05-20T08:33:08.641Z,99.80
2023-05-20T08:35:36.624Z,99.60
2023-05-20T08:38:03.556Z,99.70
2023-05-20T08:40:30.895Z,99.50
2023-05-20T08:42:59.526Z,99.20
2023-05-20T08:45:28.553Z,99.30
2023-05-20T08:48:00.906Z,99.10
2023-05-20T08:50:27.941Z,99.10
2023-05-20T08:52:54.951Z,99.10
2023-05-20T08:55:40.329Z,98.70
2023-05-20T08:58:07.720Z,98.80
2023-05-20T09:00:35.034Z,98.70
2023-05-20T09:03:01.892Z,99.20
2023-05-20T09:05:29.504Z,98.90
2023-05-20T09:08:09.689Z,98.50
2023-05-20T09:10:37.162Z,98.50
2023-05-20T09:13:06.478Z,98.60
2023-05-20T09:15:34.492Z,98.60
2023-05-20T09:18:02.431Z,99.30
2023-05-20T09:20:30.115Z,98.60
2023-05-20T09:23:07.290Z,98.60
2023-05-20T09:25:35.337Z,98.60
2023-05-20T09:28:07.740Z,98.60
2023-05-20T09:30:34.912Z,98.50
2023-05-20T09:33:03.701Z,98.20
2023-05-20T09:35:30.620Z,98.20
2023-05-20T09:37:58.450Z,98.50
2023-05-20T09:40:26.458Z,98.50
2023-05-20T09:42:57.790Z,98.40
2023-05-20T09:45:27.880Z,98.40
2023-05-20T09:47:56.703Z,98.40
2023-05-20T09:50:27.182Z,98.30
2023-05-20T09:52:55.017Z,97.80
2023-05-20T09:55:25.275Z,97.80
2023-05-20T09:57:52.367Z,98.30
2023-05-20T10:00:20.160Z,97.80
2023-05-20T10:02:48.258Z,98.00
2023-05-20T10:05:20.618Z,98.20
2023-05-20T10:07:53.562Z,98.10
2023-05-20T10:10:20.520Z,98.40
2023-05-20T10:13:49.076Z,98.90
2023-05-20T10:16:30.382Z,98.80
2023-05-20T10:18:57.589Z,98.20
2023-05-20T10:21:24.761Z,98.90
2023-05-20T10:23:52.399Z,98.60
2023-05-20T10:26:19.866Z,98.50
2023-05-20T10:28:50.234Z,97.90
2023-05-20T10:31:23.650Z,97.60
2023-05-20T10:33:53.257Z,96.90
2023-05-20T10:36:26.375Z,97.20
2023-05-20T10:39:17.654Z,97.00
2023-05-20T10:41:45.048Z,96.10
2023-05-20T10:44:12.354Z,96.00
2023-05-20T10:46:57.164Z,95.90
2023-05-20T10:49:27.753Z,95.90
2023-05-20T10:51:55.829Z,96.50
2023-05-20T10:54:23.314Z,96.10
2023-05-20T10:56:53.759Z,96.00
2023-05-20T10:59:21.922Z,95.90
2023-05-20T11:01:48.787Z,96.30
2023-05-20T11:04:17.656Z,95.60
2023-05-20T11:06:53.892Z,95.70
2023-05-20T11:09:20.946Z,95.60
2023-05-20T11:11:47.835Z,96.00
2023-05-20T11:14:15.288Z,95.90
2023-05-20T11:16:43.031Z,96.00
2023-05-20T11:19:15.698Z,95.00
2023-05-20T11:21:46.545Z,95.80
2023-05-20T11:24:13.948Z,96.30
2023-05-20T11:26:41.239Z,96.20
2023-05-20T11:29:08.614Z,95.90
2023-05-20T11:31:37.804Z,96.00
2023-05-20T11:34:04.652Z,97.20
2023-05-20T11:36:32.395Z,96.80
2023-05-20T11:39:00.211Z,96.70
2023-05-20T11:41:27.711Z,97.20
2023-05-20T11:44:01.161Z,97.40
2023-05-20T11:46:28.415Z,97.30
2023-05-20T11:48:55.723Z,97.00
2023-05-20T11:51:29.512Z,96.70
2023-05-20T11:54:01.533Z,96.60
2023-05-20T11:56:33.236Z,97.70
2023-05-20T11:59:01.294Z,97.50
2023-05-20T12:01:31.346Z,97.40
2023-05-20T12:03:58.268Z,97.60
2023-05-20T12:06:25.892Z,97.90
2023-05-20T12:08:52.947Z,97.80
2023-05-20T12:11:20.601Z,98.00
2023-05-20T12:13:48.808Z,97.70
2023-05-20T12:16:16.366Z,97.10
2023-05-20T12:18:43.779Z,97.50
2023-05-20T12:21:11.254Z,97.60
2023-05-20T12:23:39.523Z,97.70
2023-05-20T12:26:07.832Z,97.60
2023-05-20T12:28:34.991Z,98.10
2023-05-20T12:31:02.171Z,98.00
2023-05-20T12:33:29.376Z,97.70
2023-05-20T12:35:56.337Z,97.70
2023-05-20T12:38:23.327Z,97.90
2023-05-20T12:40:50.323Z,98.20
2023-05-20T12:43:17.091Z,98.40
2023-05-20T12:45:44.522Z,98.10
2023-05-20T12:48:11.664Z,98.20
2023-05-20T12:50:38.903Z,98.40
2023-05-20T12:53:06.908Z,97.70
2023-05-20T12:55:34.001Z,97.50
2023-05-20T12:58:01.067Z,97.90
2023-05-20T13:00:28.080Z,98.10
2023-05-20T13:02:55.190Z,97.60
2023-05-20T13:05:22.908Z,97.50
2023-05-20T13:07:51.562Z,97.60
2023-05-20T13:10:18.803Z,98.00
2023-05-20T13:12:48.598Z,97.50
2023-05-20T13:15:16.146Z,97.30
2023-05-20T13:17:43.109Z,97.30
2023-05-20T13:20:11.021Z,97.50
2023-05-20T13:22:38.711Z,97.20
2023-05-20T13:25:06.855Z,96.50
2023-05-20T13:27:34.225Z,96.80
2023-05-20T13:30:02.093Z,97.20
2023-05-20T13:32:29.311Z,97.00
2023-05-20T13:34:57.373Z,97.60
2023-05-20T13:37:24.381Z,97.10
2023-05-20T13:39:51.640Z,97.30
2023-05-20T13:42:18.604Z,97.80
2023-05-20T13:44:45.930Z,97.10
2023-05-20T13:47:13.015Z,97.30
2023-05-20T13:49:39.845Z,96.50
2023-05-20T13:52:07.329Z,96.60
2023-05-20T13:54:34.378Z,97.00
2023-05-20T13:57:01.713Z,96.70
2023-05-20T13:59:29.188Z,96.80
2023-05-20T14:01:56.803Z,96.90
2023-05-20T14:04:25.567Z,96.80
2023-05-20T14:06:52.337Z,97.50
2023-05-20T14:09:19.802Z,97.20
2023-05-20T14:11:46.576Z,96.70
2023-05-20T14:14:13.571Z,97.10
2023-05-20T14:16:40.918Z,97.10
2023-05-20T14:19:09.120Z,96.90
2023-05-20T14:21:36.052Z,97.00
2023-05-20T14:24:03.456Z,97.70
2023-05-20T14:26:30.951Z,97.70
2023-05-20T14:28:58.634Z,97.40
2023-05-20T14:31:46.912Z,97.20
2023-05-20T14:34:13.966Z,97.20
2023-05-20T14:36:41.352Z,97.20
2023-05-20T14:39:08.284Z,96.70
2023-05-20T14:41:35.029Z,96.80
2023-05-20T14:44:01.965Z,97.30
2023-05-20T14:46:29.020Z,97.10
2023-05-20T14:48:56.473Z,97.30
2023-05-20T14:51:23.504Z,97.50
2023-05-20T14:53:50.829Z,97.10
2023-05-20T14:56:17.578Z,96.80
2023-05-20T14:58:44.374Z,96.70
2023-05-20T15:01:11.402Z,96.30
2023-05-20T15:03:38.478Z,96.90
2023-05-20T15:06:06.345Z,97.40
2023-05-20T15:08:33.358Z,97.40
2023-05-20T15:11:00.163Z,97.30
2023-05-20T15:13:27.338Z,97.20
2023-05-20T15:15:54.517Z,96.30
2023-05-20T15:18:21.369Z,96.00
2023-05-20T15:20:48.393Z,97.00
2023-05-20T15:23:17.270Z,97.10
2023-05-20T15:25:44.051Z,97.20
2023-05-20T15:28:11.786Z,96.40
2023-05-20T15:30:39.165Z,96.70
2023-05-20T15:33:06.027Z,96.70
2023-05-20T15:35:33.096Z,97.00
2023-05-20T15:38:00.157Z,96.80
2023-05-20T15:40:28.062Z,96.70
2023-05-20T15:42:55.078Z,96.90
2023-05-20T15:45:21.830Z,97.20
2023-05-20T15:47:49.257Z,97.20
2023-05-20T15:50:16.797Z,97.20
2023-05-20T15:52:44.603Z,97.50
2023-05-20T15:55:12.966Z,97.60
2023-05-20T15:57:40.154Z,97.80
2023-05-20T16:00:10.320Z,97.70
2023-05-20T16:02:37.683Z,97.90
2023-05-20T16:05:05.061Z,97.90
2023-05-20T16:07:32.417Z,97.70
2023-05-20T16:09:59.119Z,97.60
2023-05-20T16:12:25.891Z,97.60
2023-05-20T16:14:53.133Z,97.90
2023-05-20T16:17:23.117Z,97.80
2023-05-20T16:19:50.140Z,98.10
2023-05-20T16:22:18.359Z,98.70
2023-05-20T16:24:45.873Z,98.50
2023-05-20T16:27:12.912Z,98.40
2023-05-20T16:29:39.899Z,98.30
2023-05-20T16:32:07.961Z,97.90
2023-05-20T16:34:35.384Z,98.30
2023-05-20T16:37:02.450Z,98.20
2023-05-20T16:39:29.537Z,98.00
2023-05-20T16:41:56.702Z,98.00
2023-05-20T16:44:23.714Z,98.10
2023-05-20T16:46:53.331Z,98.20
2023-05-20T16:49:21.135Z,98.20
2023-05-20T16:51:48.209Z,98.40
2023-05-20T16:54:15.143Z,98.30
2023-05-20T16:56:42.270Z,98.70
2023-05-20T16:59:09.612Z,98.60
2023-05-20T17:01:37.085Z,98.80
2023-05-20T17:04:04.058Z,98.50
2023-05-20T17:06:34.499Z,98.50
2023-05-20T17:09:05.280Z,98.60
2023-05-20T17:11:35.684Z,98.70
2023-05-20T17:14:03.194Z,98.70
2023-05-20T17:16:30.639Z,98.90
2023-05-20T17:18:58.553Z,99.00
2023-05-20T17:21:25.767Z,99.10
2023-05-20T17:23:52.890Z,99.20
2023-05-20T17:26:19.918Z,99.30
2023-05-20T17:28:47.285Z,99.00
2023-05-20T17:31:15.055Z,99.20
2023-05-20T17:33:43.880Z,99.10
2023-05-20T17:36:11.078Z,99.20
2023-05-20T17:38:38.459Z,99.50
2023-05-20T17:41:05.585Z,99.60
2023-05-20T17:43:32.533Z,99.70
2023-05-20T17:45:59.851Z,99.90
2023-05-20T17:48:27.231Z,99.90
2023-05-20T17:50:53.975Z,99.90
2023-05-20T17:53:22.264Z,99.60
2023-05-20T17:55:49.522Z,99.70
2023-05-20T17:58:16.871Z,99.70
2023-05-20T18:00:44.310Z,99.80
2023-05-20T18:03:11.167Z,99.80
2023-05-20T18:05:38.388Z,99.80
2023-05-20T18:08:06.456Z,99.70
2023-05-20T18:10:33.658Z,99.50
2023-05-20T18:13:01.359Z,99.50
2023-05-20T18:15:28.718Z,99.50
2023-05-20T18:17:55.706Z,99.50
2023-05-20T18:20:23.428Z,99.70
2023-05-20T18:22:52.549Z,99.90
2023-05-20T18:25:19.580Z,99.80
2023-05-20T18:27:47.158Z,99.90
2023-05-20T18:30:14.421Z,99.90
2023-05-20T18:32:41.566Z,99.90
2023-05-20T18:35:08.714Z,99.90
2023-05-20T18:37:35.460Z,99.90
2023-05-20T18:40:02.309Z,99.90
2023-05-20T18:42:30.972Z,99.90
2023-05-20T18:44:57.777Z,99.90
2023-05-20T18:47:24.581Z,99.90
2023-05-20T18:49:51.546Z,99.90
2023-05-20T18:52:18.973Z,99.90
2023-05-20T18:54:46.408Z,99.90
2023-05-20T18:57:14.090Z,99.90
2023-05-20T18:59:41.609Z,99.90
2023-05-20T19:02:08.365Z,99.90
2023-05-20T19:04:35.806Z,99.90
2023-05-20T19:07:03.704Z,99.90
2023-05-20T19:09:30.890Z,99.90
2023-05-20T19:11:59.243Z,99.90
2023-05-20T19:14:27.081Z,99.90
2023-05-20T19:16:54.496Z,99.90
2023-05-20T19:19:21.380Z,99.90
2023-05-20T19:21:49.409Z,99.90
2023-05-20T19:24:17.834Z,99.90
2023-05-20T19:26:45.365Z,99.90
2023-05-20T19:29:12.393Z,99.90
2023-05-20T19:31:43.116Z,99.90
2023-05-20T19:34:10.410Z,99.90
2023-05-20T19:36:38.666Z,99.90
2023-05-20T19:39:06.065Z,99.90
2023-05-20T19:41:33.061Z,99.90
2023-05-20T19:44:00.030Z,99.90
2023-05-20T19:46:27.732Z,99.90
2023-05-20T19:48:54.568Z,99.90
2023-05-20T19:51:21.593Z,99.90
2023-05-20T19:53:48.464Z,99.90
2023-05-20T19:56:19.585Z,99.90
2023-05-20T19:58:48.145Z,99.90
2023-05-20T20:01:15.271Z,99.90
2023-05-20T20:03:42.621Z,99.90
2023-05-20T20:06:09.976Z,99.90
2023-05-20T20:08:40.363Z,99.90
2023-05-20T20:11:07.281Z,99.90
2023-05-20T20:13:34.112Z,99.90
2023-05-20T20:16:00.997Z,99.90
2023-05-20T20:18:28.034Z,99.90
2023-05-20T20:20:55.393Z,99.90
2023-05-20T20:23:22.512Z,99.90
2023-05-20T20:25:50.722Z,99.90
2023-05-20T20:28:18.246Z,99.90
2023-05-20T20:30:45.398Z,99.90
2023-05-20T20:33:13.226Z,99.90
2023-05-20T20:35:40.617Z,99.90
2023-05-20T20:38:11.094Z,99.90
2023-05-20T20:40:42.478Z,99.90
2023-05-20T20:43:11.083Z,99.90
2023-05-20T20:45:38.547Z,99.90
2023-05-20T20:48:08.370Z,99.90
2023-05-20T20:50:35.739Z,99.90
2023-05-20T20:53:03.027Z,99.90
2023-05-20T20:55:30.787Z,99.90
2023-05-20T20:57:58.290Z,99.90
2023-05-20T21:00:27.122Z,99.90
2023-05-20T21:02:54.323Z,99.90
2023-05-20T21:05:21.498Z,99.90
2023-05-20T21:07:58.409Z,99.90
2023-05-20T21:10:29.074Z,99.90
2023-05-20T21:12:57.179Z,99.90
2023-05-20T21:15:24.738Z,99.90
2023-05-20T21:17:52.097Z,99.90
2023-05-20T21:20:21.615Z,99.90
2023-05-20T21:22:48.634Z,99.90
2023-05-20T21:25:16.108Z,99.90
2023-05-20T21:27:43.109Z,99.90
2023-05-20T21:30:10.994Z,99.90
2023-05-20T21:32:38.268Z,99.90
2023-05-20T21:35:05.665Z,99.90
2023-05-20T21:37:32.670Z,99.90
2023-05-20T21:39:59.573Z,99.90
2023-05-20T21:42:26.898Z,99.90
2023-05-20T21:44:53.938Z,99.90
2023-05-20T21:47:21.388Z,99.90
2023-05-20T21:49:48.372Z,99.90
2023-05-20T21:52:15.303Z,99.90
2023-05-20T21:54:42.390Z,99.90
2023-05-20T21:57:09.351Z,99.90
2023-05-20T21:59:36.361Z,99.90
2023-05-20T22:02:03.723Z,99.90
2023-05-20T22:04:33.653Z,99.90
2023-05-20T22:07:00.995Z,99.90
2023-05-20T22:09:27.914Z,99.90
2023-05-20T22:11:55.366Z,99.90
2023-05-20T22:14:22.402Z,99.90
2023-05-20T22:16:50.559Z,99.90
2023-05-20T22:19:17.491Z,99.90
2023-05-20T22:24:15.655Z,99.90
2023-05-20T22:26:42.981Z,99.90
2023-05-20T22:29:10.311Z,99.90
2023-05-20T22:31:38.051Z,99.90
2023-05-20T22:34:05.500Z,99.90
2023-05-20T22:36:34.237Z,99.90
2023-05-20T22:39:02.213Z,99.90
2023-05-20T22:41:30.932Z,99.90
2023-05-20T22:43:58.414Z,99.90
2023-05-20T22:46:25.899Z,99.90
2023-05-20T22:48:53.422Z,99.90
2023-05-20T22:51:24.813Z,99.90
2023-05-20T22:53:51.946Z,99.90
2023-05-20T22:56:19.213Z,99.90
2023-05-20T22:58:46.196Z,99.90
2023-05-20T23:01:13.705Z,99.90
2023-05-20T23:03:40.553Z,99.90
2023-05-20T23:06:07.547Z,99.90
2023-05-20T23:08:34.997Z,99.90
2023-05-20T23:11:01.807Z,99.90
2023-05-20T23:13:28.604Z,99.90
2023-05-20T23:15:55.772Z,99.90
2023-05-20T23:18:22.570Z,99.90
2023-05-20T23:20:49.337Z,99.90
2023-05-20T23:23:17.169Z,99.90
2023-05-20T23:25:46.034Z,99.90
2023-05-20T23:28:15.381Z,99.90
2023-05-20T23:30:42.519Z,99.90
2023-05-20T23:33:09.460Z,99.90
2023-05-20T23:35:36.517Z,99.90
2023-05-20T23:38:03.684Z,99.90
2023-05-20T23:40:30.667Z,99.90
2023-05-20T23:42:57.917Z,99.90
2023-05-20T23:45:24.670Z,99.90
2023-05-20T23:47:52.017Z,99.90
2023-05-20T23:50:18.807Z,99.90
2023-05-20T23:52:46.374Z,99.90
2023-05-20T23:55:14.510Z,99.90
2023-05-20T23:57:41.899Z,99.90
